sensor_id;sensor_type;location;lat;lon;timestamp;pressure;altitude;pressure_sealevel;temperature;humidity
12219;BME280;6172;42.646;23.344;2023-05-22T00:00:55;94379.75;;;11.85;100.00
12219;BME280;6172;42.646;23.344;2023-05-22T00:03:26;94382.19;;;11.95;100.00
12219;BME280;6172;42.646;23.344;2023-05-22T00:05:53;94371.19;;;11.99;100.00
12219;BME280;6172;42.646;23.344;2023-05-22T00:08:23;94368.25;;;12.06;100.00
12219;BME280;6172;42.646;23.344;2023-05-22T00:10:50;94368.28;;;12.18;100.00
12219;BME280;6172;42.646;23.344;2023-05-22T00:13:17;94372.91;;;12.21;100.00
12219;BME280;6172;42.646;23.344;2023-05-22T00:15:44;94366.56;;;12.24;100.00
12219;BME280;6172;42.646;23.344;2023-05-22T00:18:13;94365.72;;;12.27;100.00
12219;BME280;6172;42.646;23.344;2023-05-22T00:20:40;94368.13;;;12.25;100.00
12219;BME280;6172;42.646;23.344;2023-05-22T00:23:06;94361.97;;;12.21;100.00
12219;BME280;6172;42.646;23.344;2023-05-22T00:25:35;94360.25;;;12.27;100.00
12219;BME280;6172;42.646;23.344;2023-05-22T00:28:02;94365.75;;;12.40;100.00
12219;BME280;6172;42.646;23.344;2023-05-22T00:30:29;94355.81;;;12.46;100.00
12219;BME280;6172;42.646;23.344;2023-05-22T00:32:56;94361.69;;;12.60;100.00
12219;BME280;6172;42.646;23.344;2023-05-22T00:35:24;94357.03;;;12.45;100.00
12219;BME280;6172;42.646;23.344;2023-05-22T00:37:51;94363.38;;;12.42;100.00
12219;BME280;6172;42.646;23.344;2023-05-22T00:40:19;94363.28;;;12.45;100.00
12219;BME280;6172;42.646;23.344;2023-05-22T00:42:46;94365.28;;;12.57;100.00
12219;BME280;6172;42.646;23.344;2023-05-22T00:45:13;94356.59;;;12.46;100.00
12219;BME280;6172;42.646;23.344;2023-05-22T00:47:40;94376.78;;;12.52;100.00
12219;BME280;6172;42.646;23.344;2023-05-22T00:50:09;94370.09;;;12.53;100.00
12219;BME280;6172;42.646;23.344;2023-05-22T00:52:40;94368.19;;;12.50;100.00
12219;BME280;6172;42.646;23.344;2023-05-22T00:55:09;94366.31;;;12.47;100.00
12219;BME280;6172;42.646;23.344;2023-05-22T00:57:37;94369.25;;;12.40;100.00
12219;BME280;6172;42.646;23.344;2023-05-22T01:00:07;94359.16;;;12.53;100.00
12219;BME280;6172;42.646;23.344;2023-05-22T01:02:36;94364.09;;;12.58;100.00
12219;BME280;6172;42.646;23.344;2023-05-22T01:05:04;94353.72;;;12.66;100.00
12219;BME280;6172;42.646;23.344;2023-05-22T01:07:32;94363.34;;;12.70;100.00
12219;BME280;6172;42.646;23.344;2023-05-22T01:10:04;94368.69;;;12.61;100.00
12219;BME280;6172;42.646;23.344;2023-05-22T01:12:40;94361.03;;;12.56;100.00
12219;BME280;6172;42.646;23.344;2023-05-22T01:15:13;94363.56;;;12.63;100.00
12219;BME280;6172;42.646;23.344;2023-05-22T01:17:51;94366.50;;;12.56;100.00
12219;BME280;6172;42.646;23.344;2023-05-22T01:20:26;94360.78;;;12.51;100.00
12219;BME280;6172;42.646;23.344;2023-05-22T01:29:29;94362.34;;;12.64;100.00
12219;BME280;6172;42.646;23.344;2023-05-22T01:32:03;94349.69;;;12.70;100.00
12219;BME280;6172;42.646;23.344;2023-05-22T01:34:33;94350.53;;;12.67;100.00
12219;BME280;6172;42.646;23.344;2023-05-22T01:37:03;94360.38;;;12.52;100.00
12219;BME280;6172;42.646;23.344;2023-05-22T01:39:32;94348.75;;;12.48;100.00
12219;BME280;6172;42.646;23.344;2023-05-22T01:41:59;94341.56;;;12.54;100.00
12219;BME280;6172;42.646;23.344;2023-05-22T01:44:26;94343.22;;;12.64;100.00
12219;BME280;6172;42.646;23.344;2023-05-22T01:46:54;94341.34;;;12.61;100.00
12219;BME280;6172;42.646;23.344;2023-05-22T01:49:26;94345.84;;;12.68;100.00
12219;BME280;6172;42.646;23.344;2023-05-22T01:51:58;94338.44;;;12.68;100.00
12219;BME280;6172;42.646;23.344;2023-05-22T01:54:31;94341.69;;;12.63;100.00
12219;BME280;6172;42.646;23.344;2023-05-22T01:57:12;94343.75;;;12.59;100.00
12219;BME280;6172;42.646;23.344;2023-05-22T01:59:43;94344.09;;;12.61;100.00
12219;BME280;6172;42.646;23.344;2023-05-22T02:02:14;94338.81;;;12.54;100.00
12219;BME280;6172;42.646;23.344;2023-05-22T02:04:47;94345.84;;;12.55;100.00
12219;BME280;6172;42.646;23.344;2023-05-22T02:07:18;94347.78;;;12.55;100.00
12219;BME280;6172;42.646;23.344;2023-05-22T02:09:47;94344.16;;;12.45;100.00
12219;BME280;6172;42.646;23.344;2023-05-22T02:12:15;94354.22;;;12.48;100.00
12219;BME280;6172;42.646;23.344;2023-05-22T02:14:43;94352.66;;;12.47;100.00
12219;BME280;6172;42.646;23.344;2023-05-22T02:17:10;94343.88;;;12.40;100.00
12219;BME280;6172;42.646;23.344;2023-05-22T02:19:37;94354.81;;;12.40;100.00
12219;BME280;6172;42.646;23.344;2023-05-22T02:22:06;94347.50;;;12.37;100.00
12219;BME280;6172;42.646;23.344;2023-05-22T02:24:39;94342.78;;;12.37;100.00
12219;BME280;6172;42.646;23.344;2023-05-22T02:27:07;94345.31;;;12.32;100.00
12219;BME280;6172;42.646;23.344;2023-05-22T02:29:34;94351.53;;;12.32;100.00
12219;BME280;6172;42.646;23.344;2023-05-22T02:32:01;94351.81;;;12.22;100.00
12219;BME280;6172;42.646;23.344;2023-05-22T02:34:28;94353.34;;;12.23;100.00
12219;BME280;6172;42.646;23.344;2023-05-22T02:36:57;94351.03;;;12.21;100.00
12219;BME280;6172;42.646;23.344;2023-05-22T02:39:26;94349.16;;;12.18;100.00
12219;BME280;6172;42.646;23.344;2023-05-22T02:41:53;94344.41;;;11.94;100.00
12219;BME280;6172;42.646;23.344;2023-05-22T02:44:19;94343.50;;;11.97;100.00
12219;BME280;6172;42.646;23.344;2023-05-22T02:46:47;94340.31;;;11.86;100.00
12219;BME280;6172;42.646;23.344;2023-05-22T02:49:14;94347.22;;;11.90;100.00
12219;BME280;6172;42.646;23.344;2023-05-22T02:51:41;94344.13;;;11.88;100.00
12219;BME280;6172;42.646;23.344;2023-05-22T02:54:13;94337.75;;;11.79;100.00
12219;BME280;6172;42.646;23.344;2023-05-22T02:56:41;94335.88;;;11.76;100.00
12219;BME280;6172;42.646;23.344;2023-05-22T02:59:10;94336.13;;;11.81;100.00
12219;BME280;6172;42.646;23.344;2023-05-22T03:01:37;94340.91;;;11.77;100.00
12219;BME280;6172;42.646;23.344;2023-05-22T03:04:04;94342.13;;;11.76;100.00
12219;BME280;6172;42.646;23.344;2023-05-22T03:06:32;94341.28;;;11.47;100.00
12219;BME280;6172;42.646;23.344;2023-05-22T03:09:01;94332.06;;;11.25;100.00
12219;BME280;6172;42.646;23.344;2023-05-22T03:11:29;94343.16;;;11.34;100.00
12219;BME280;6172;42.646;23.344;2023-05-22T03:13:57;94347.78;;;11.37;100.00
12219;BME280;6172;42.646;23.344;2023-05-22T03:16:24;94362.03;;;11.29;100.00
12219;BME280;6172;42.646;23.344;2023-05-22T03:19:06;94348.63;;;11.34;100.00
12219;BME280;6172;42.646;23.344;2023-05-22T03:21:33;94362.53;;;11.40;100.00
12219;BME280;6172;42.646;23.344;2023-05-22T03:24:00;94358.16;;;11.42;100.00
12219;BME280;6172;42.646;23.344;2023-05-22T03:26:27;94358.44;;;11.48;100.00
12219;BME280;6172;42.646;23.344;2023-05-22T03:28:53;94359.53;;;11.50;100.00
12219;BME280;6172;42.646;23.344;2023-05-22T03:31:23;94359.03;;;11.55;100.00
12219;BME280;6172;42.646;23.344;2023-05-22T03:33:50;94365.31;;;11.52;100.00
12219;BME280;6172;42.646;23.344;2023-05-22T03:36:17;94353.53;;;11.23;100.00
12219;BME280;6172;42.646;23.344;2023-05-22T03:38:47;94356.94;;;11.27;100.00
12219;BME280;6172;42.646;23.344;2023-05-22T03:41:14;94349.53;;;11.28;100.00
12219;BME280;6172;42.646;23.344;2023-05-22T03:43:41;94359.69;;;11.27;100.00
12219;BME280;6172;42.646;23.344;2023-05-22T03:46:08;94353.59;;;11.39;100.00
12219;BME280;6172;42.646;23.344;2023-05-22T03:48:37;94365.69;;;11.54;100.00
12219;BME280;6172;42.646;23.344;2023-05-22T03:51:05;94365.50;;;11.61;100.00
12219;BME280;6172;42.646;23.344;2023-05-22T03:53:31;94361.84;;;11.68;100.00
12219;BME280;6172;42.646;23.344;2023-05-22T03:55:58;94362.09;;;11.73;100.00
12219;BME280;6172;42.646;23.344;2023-05-22T03:58:25;94354.06;;;11.82;100.00
12219;BME280;6172;42.646;23.344;2023-05-22T04:00:54;94359.66;;;11.91;100.00
12219;BME280;6172;42.646;23.344;2023-05-22T04:03:22;94355.06;;;11.88;100.00
12219;BME280;6172;42.646;23.344;2023-05-22T04:05:52;94353.94;;;12.02;100.00
12219;BME280;6172;42.646;23.344;2023-05-22T04:08:19;94360.66;;;12.13;100.00
12219;BME280;6172;42.646;23.344;2023-05-22T04:10:49;94357.88;;;12.01;100.00
12219;BME280;6172;42.646;23.344;2023-05-22T04:13:18;94364.25;;;11.94;100.00
12219;BME280;6172;42.646;23.344;2023-05-22T04:15:46;94357.00;;;12.04;100.00
12219;BME280;6172;42.646;23.344;2023-05-22T04:18:14;94363.47;;;12.10;100.00
12219;BME280;6172;42.646;23.344;2023-05-22T04:20:41;94364.19;;;12.26;100.00
12219;BME280;6172;42.646;23.344;2023-05-22T04:23:11;94365.94;;;12.33;100.00
12219;BME280;6172;42.646;23.344;2023-05-22T04:25:39;94363.78;;;12.40;100.00
12219;BME280;6172;42.646;23.344;2023-05-22T04:28:06;94365.91;;;12.49;100.00
12219;BME280;6172;42.646;23.344;2023-05-22T04:30:34;94368.69;;;12.33;100.00
12219;BME280;6172;42.646;23.344;2023-05-22T04:33:01;94370.50;;;12.52;100.00
12219;BME280;6172;42.646;23.344;2023-05-22T04:35:29;94379.06;;;12.54;100.00
12219;BME280;6172;42.646;23.344;2023-05-22T04:37:58;94365.84;;;12.52;100.00
12219;BME280;6172;42.646;23.344;2023-05-22T04:40:28;94373.19;;;12.68;100.00
12219;BME280;6172;42.646;23.344;2023-05-22T04:42:58;94368.97;;;12.80;100.00
12219;BME280;6172;42.646;23.344;2023-05-22T04:45:26;94376.16;;;12.73;100.00
12219;BME280;6172;42.646;23.344;2023-05-22T04:47:53;94367.22;;;12.98;100.00
12219;BME280;6172;42.646;23.344;2023-05-22T04:50:20;94367.88;;;13.02;100.00
12219;BME280;6172;42.646;23.344;2023-05-22T04:52:48;94367.13;;;13.02;100.00
12219;BME280;6172;42.646;23.344;2023-05-22T04:55:15;94369.66;;;13.09;100.00
12219;BME280;6172;42.646;23.344;2023-05-22T04:57:44;94359.34;;;13.25;100.00
12219;BME280;6172;42.646;23.344;2023-05-22T05:00:12;94366.00;;;13.49;100.00
12219;BME280;6172;42.646;23.344;2023-05-22T05:02:41;94363.72;;;13.48;100.00
12219;BME280;6172;42.646;23.344;2023-05-22T05:05:08;94361.75;;;13.73;100.00
12219;BME280;6172;42.646;23.344;2023-05-22T05:07:38;94359.06;;;13.95;100.00
12219;BME280;6172;42.646;23.344;2023-05-22T05:10:06;94359.81;;;14.08;100.00
12219;BME280;6172;42.646;23.344;2023-05-22T05:12:34;94355.38;;;13.89;100.00
12219;BME280;6172;42.646;23.344;2023-05-22T05:15:03;94363.09;;;14.03;100.00
12219;BME280;6172;42.646;23.344;2023-05-22T05:17:32;94365.72;;;14.06;100.00
12219;BME280;6172;42.646;23.344;2023-05-22T05:19:59;94369.38;;;14.25;100.00
12219;BME280;6172;42.646;23.344;2023-05-22T05:22:26;94362.19;;;14.40;100.00
12219;BME280;6172;42.646;23.344;2023-05-22T05:24:53;94361.72;;;14.41;100.00
12219;BME280;6172;42.646;23.344;2023-05-22T05:27:20;94359.66;;;14.45;100.00
12219;BME280;6172;42.646;23.344;2023-05-22T05:29:47;94363.78;;;14.50;100.00
12219;BME280;6172;42.646;23.344;2023-05-22T05:32:16;94361.91;;;14.68;100.00
12219;BME280;6172;42.646;23.344;2023-05-22T05:34:42;94367.03;;;15.00;100.00
12219;BME280;6172;42.646;23.344;2023-05-22T05:37:09;94363.03;;;15.23;100.00
12219;BME280;6172;42.646;23.344;2023-05-22T05:39:37;94358.97;;;15.76;100.00
12219;BME280;6172;42.646;23.344;2023-05-22T05:42:04;94356.53;;;17.04;100.00
12219;BME280;6172;42.646;23.344;2023-05-22T05:44:31;94344.13;;;18.54;100.00
12219;BME280;6172;42.646;23.344;2023-05-22T05:46:58;94349.13;;;18.79;88.11
12219;BME280;6172;42.646;23.344;2023-05-22T05:49:26;94348.38;;;18.93;85.58
12219;BME280;6172;42.646;23.344;2023-05-22T05:51:54;94340.09;;;19.86;74.18
12219;BME280;6172;42.646;23.344;2023-05-22T05:54:21;94344.00;;;20.54;68.40
12219;BME280;6172;42.646;23.344;2023-05-22T05:56:50;94347.56;;;21.25;61.04
12219;BME280;6172;42.646;23.344;2023-05-22T05:59:17;94343.63;;;23.33;50.59
12219;BME280;6172;42.646;23.344;2023-05-22T06:01:45;94340.34;;;24.80;45.01
12219;BME280;6172;42.646;23.344;2023-05-22T06:04:12;94346.78;;;25.16;41.53
12219;BME280;6172;42.646;23.344;2023-05-22T06:06:40;94337.91;;;25.17;40.43
12219;BME280;6172;42.646;23.344;2023-05-22T06:09:08;94341.00;;;24.40;42.32
12219;BME280;6172;42.646;23.344;2023-05-22T06:11:35;94351.22;;;23.49;43.86
12219;BME280;6172;42.646;23.344;2023-05-22T06:14:03;94349.09;;;24.49;41.43
12219;BME280;6172;42.646;23.344;2023-05-22T06:16:31;94355.69;;;22.97;42.90
12219;BME280;6172;42.646;23.344;2023-05-22T06:18:58;94349.09;;;21.26;47.32
12219;BME280;6172;42.646;23.344;2023-05-22T06:21:26;94349.91;;;20.61;50.79
12219;BME280;6172;42.646;23.344;2023-05-22T06:23:54;94344.84;;;23.05;45.06
12219;BME280;6172;42.646;23.344;2023-05-22T06:26:21;94340.53;;;24.25;40.67
12219;BME280;6172;42.646;23.344;2023-05-22T06:28:50;94340.84;;;24.84;39.83
12219;BME280;6172;42.646;23.344;2023-05-22T06:31:18;94341.53;;;26.31;36.78
12219;BME280;6172;42.646;23.344;2023-05-22T06:33:45;94341.78;;;25.03;37.56
12219;BME280;6172;42.646;23.344;2023-05-22T06:36:12;94353.47;;;23.23;40.20
12219;BME280;6172;42.646;23.344;2023-05-22T06:38:39;94347.28;;;24.52;36.96
12219;BME280;6172;42.646;23.344;2023-05-22T06:41:07;94350.69;;;24.06;37.53
12219;BME280;6172;42.646;23.344;2023-05-22T06:43:34;94351.66;;;21.98;42.68
12219;BME280;6172;42.646;23.344;2023-05-22T06:46:00;94350.41;;;23.10;42.46
12219;BME280;6172;42.646;23.344;2023-05-22T06:48:27;94343.03;;;25.02;37.18
12219;BME280;6172;42.646;23.344;2023-05-22T06:50:54;94343.44;;;25.63;35.67
12219;BME280;6172;42.646;23.344;2023-05-22T06:53:21;94348.41;;;23.16;38.44
12219;BME280;6172;42.646;23.344;2023-05-22T06:55:49;94351.09;;;20.55;44.73
12219;BME280;6172;42.646;23.344;2023-05-22T06:58:18;94355.13;;;19.50;48.55
12219;BME280;6172;42.646;23.344;2023-05-22T07:00:44;94361.41;;;18.78;52.59
12219;BME280;6172;42.646;23.344;2023-05-22T07:03:11;94356.47;;;19.40;51.92
12219;BME280;6172;42.646;23.344;2023-05-22T07:05:38;94357.91;;;19.21;54.06
12219;BME280;6172;42.646;23.344;2023-05-22T07:08:05;94354.88;;;19.33;54.34
12219;BME280;6172;42.646;23.344;2023-05-22T07:10:32;94357.66;;;18.52;56.93
12219;BME280;6172;42.646;23.344;2023-05-22T07:12:59;94356.00;;;18.98;57.56
12219;BME280;6172;42.646;23.344;2023-05-22T07:15:27;94360.19;;;19.37;55.84
12219;BME280;6172;42.646;23.344;2023-05-22T07:17:54;94350.59;;;19.47;55.65
12219;BME280;6172;42.646;23.344;2023-05-22T07:20:21;94352.03;;;19.28;57.27
12219;BME280;6172;42.646;23.344;2023-05-22T07:22:49;94348.00;;;18.71;56.63
12219;BME280;6172;42.646;23.344;2023-05-22T07:25:16;94357.56;;;18.61;58.09
12219;BME280;6172;42.646;23.344;2023-05-22T07:27:43;94353.00;;;18.58;59.07
12219;BME280;6172;42.646;23.344;2023-05-22T07:30:11;94349.94;;;18.56;57.01
12219;BME280;6172;42.646;23.344;2023-05-22T07:32:39;94349.03;;;17.88;60.95
12219;BME280;6172;42.646;23.344;2023-05-22T07:35:07;94352.28;;;18.86;57.98
12219;BME280;6172;42.646;23.344;2023-05-22T07:37:35;94357.53;;;18.99;57.38
12219;BME280;6172;42.646;23.344;2023-05-22T07:40:02;94355.53;;;18.47;61.46
12219;BME280;6172;42.646;23.344;2023-05-22T07:42:31;94355.53;;;18.47;64.36
12219;BME280;6172;42.646;23.344;2023-05-22T07:44:58;94345.72;;;19.13;59.81
12219;BME280;6172;42.646;23.344;2023-05-22T07:47:24;94343.31;;;19.64;58.45
12219;BME280;6172;42.646;23.344;2023-05-22T07:49:53;94342.38;;;19.87;58.64
12219;BME280;6172;42.646;23.344;2023-05-22T07:52:20;94349.56;;;18.63;63.58
12219;BME280;6172;42.646;23.344;2023-05-22T07:54:48;94343.69;;;18.70;64.67
12219;BME280;6172;42.646;23.344;2023-05-22T07:57:15;94349.31;;;18.90;65.45
12219;BME280;6172;42.646;23.344;2023-05-22T07:59:42;94342.09;;;19.21;63.59
12219;BME280;6172;42.646;23.344;2023-05-22T08:02:09;94346.28;;;19.17;61.40
12219;BME280;6172;42.646;23.344;2023-05-22T08:04:36;94340.22;;;20.31;57.84
12219;BME280;6172;42.646;23.344;2023-05-22T08:07:05;94333.59;;;21.45;53.72
12219;BME280;6172;42.646;23.344;2023-05-22T08:09:33;94332.66;;;22.86;49.25
12219;BME280;6172;42.646;23.344;2023-05-22T08:12:00;94343.41;;;23.81;44.07
12219;BME280;6172;42.646;23.344;2023-05-22T08:14:29;94338.56;;;23.54;43.80
12219;BME280;6172;42.646;23.344;2023-05-22T08:16:56;94333.91;;;22.85;45.42
12219;BME280;6172;42.646;23.344;2023-05-22T08:19:24;94341.47;;;22.79;43.69
12219;BME280;6172;42.646;23.344;2023-05-22T08:21:51;94330.66;;;22.86;44.24
12219;BME280;6172;42.646;23.344;2023-05-22T08:24:23;94331.22;;;22.37;45.48
12219;BME280;6172;42.646;23.344;2023-05-22T08:26:52;94343.97;;;21.45;44.22
12219;BME280;6172;42.646;23.344;2023-05-22T08:29:19;94333.28;;;21.63;44.30
12219;BME280;6172;42.646;23.344;2023-05-22T08:31:46;94328.31;;;22.21;44.81
12219;BME280;6172;42.646;23.344;2023-05-22T08:34:13;94341.31;;;23.21;41.58
12219;BME280;6172;42.646;23.344;2023-05-22T08:36:40;94327.69;;;23.06;41.43
12219;BME280;6172;42.646;23.344;2023-05-22T08:39:08;94324.66;;;23.48;40.83
12219;BME280;6172;42.646;23.344;2023-05-22T08:41:37;94332.25;;;22.45;41.16
12219;BME280;6172;42.646;23.344;2023-05-22T08:44:04;94334.00;;;22.37;41.53
12219;BME280;6172;42.646;23.344;2023-05-22T08:46:32;94321.31;;;21.83;40.86
12219;BME280;6172;42.646;23.344;2023-05-22T08:49:03;94326.25;;;22.10;41.04
12219;BME280;6172;42.646;23.344;2023-05-22T08:51:32;94323.19;;;21.97;40.35
12219;BME280;6172;42.646;23.344;2023-05-22T08:54:04;94332.06;;;22.54;38.35
12219;BME280;6172;42.646;23.344;2023-05-22T08:56:32;94329.44;;;22.34;39.28
12219;BME280;6172;42.646;23.344;2023-05-22T08:59:02;94330.94;;;22.99;39.45
12219;BME280;6172;42.646;23.344;2023-05-22T09:01:29;94327.94;;;23.41;39.36
12219;BME280;6172;42.646;23.344;2023-05-22T09:03:59;94310.75;;;23.87;38.26
12219;BME280;6172;42.646;23.344;2023-05-22T09:06:26;94326.94;;;23.55;37.27
12219;BME280;6172;42.646;23.344;2023-05-22T09:08:53;94324.69;;;22.46;38.78
12219;BME280;6172;42.646;23.344;2023-05-22T09:11:20;94320.97;;;22.71;38.69
12219;BME280;6172;42.646;23.344;2023-05-22T09:13:47;94315.69;;;22.14;38.82
12219;BME280;6172;42.646;23.344;2023-05-22T09:16:18;94315.34;;;21.96;38.60
12219;BME280;6172;42.646;23.344;2023-05-22T09:18:44;94311.97;;;21.49;38.93
12219;BME280;6172;42.646;23.344;2023-05-22T09:21:13;94312.59;;;22.01;38.20
12219;BME280;6172;42.646;23.344;2023-05-22T09:23:41;94306.69;;;21.51;38.86
12219;BME280;6172;42.646;23.344;2023-05-22T09:26:07;94305.56;;;21.32;39.10
12219;BME280;6172;42.646;23.344;2023-05-22T09:28:35;94318.13;;;21.02;38.60
12219;BME280;6172;42.646;23.344;2023-05-22T09:31:03;94320.16;;;21.02;38.25
12219;BME280;6172;42.646;23.344;2023-05-22T09:33:32;94313.88;;;21.32;38.88
12219;BME280;6172;42.646;23.344;2023-05-22T09:35:59;94312.66;;;22.18;38.32
12219;BME280;6172;42.646;23.344;2023-05-22T09:38:27;94309.06;;;22.59;38.38
12219;BME280;6172;42.646;23.344;2023-05-22T09:40:55;94319.16;;;22.46;37.16
12219;BME280;6172;42.646;23.344;2023-05-22T09:43:23;94306.44;;;21.49;39.44
12219;BME280;6172;42.646;23.344;2023-05-22T09:45:55;94311.34;;;21.34;41.03
12219;BME280;6172;42.646;23.344;2023-05-22T09:48:22;94326.63;;;20.93;40.64
12219;BME280;6172;42.646;23.344;2023-05-22T09:50:52;94319.31;;;20.96;40.72
12219;BME280;6172;42.646;23.344;2023-05-22T09:53:24;94319.25;;;20.65;41.43
12219;BME280;6172;42.646;23.344;2023-05-22T09:55:52;94317.38;;;20.36;41.15
12219;BME280;6172;42.646;23.344;2023-05-22T09:58:23;94322.13;;;19.96;42.52
12219;BME280;6172;42.646;23.344;2023-05-22T10:00:55;94325.56;;;20.05;42.68
12219;BME280;6172;42.646;23.344;2023-05-22T10:03:23;94331.00;;;19.65;43.41
12219;BME280;6172;42.646;23.344;2023-05-22T10:05:53;94323.81;;;19.73;43.95
12219;BME280;6172;42.646;23.344;2023-05-22T10:08:24;94321.31;;;19.90;42.56
12219;BME280;6172;42.646;23.344;2023-05-22T10:10:51;94320.16;;;20.16;42.19
12219;BME280;6172;42.646;23.344;2023-05-22T10:13:19;94319.88;;;20.34;42.31
12219;BME280;6172;42.646;23.344;2023-05-22T10:15:46;94325.31;;;20.69;40.08
12219;BME280;6172;42.646;23.344;2023-05-22T10:18:13;94327.06;;;20.86;40.78
12219;BME280;6172;42.646;23.344;2023-05-22T10:20:41;94324.44;;;20.57;41.12
12219;BME280;6172;42.646;23.344;2023-05-22T10:23:11;94333.28;;;20.01;47.27
12219;BME280;6172;42.646;23.344;2023-05-22T10:25:37;94323.63;;;20.31;50.20
12219;BME280;6172;42.646;23.344;2023-05-22T10:28:05;94323.75;;;20.22;51.29
12219;BME280;6172;42.646;23.344;2023-05-22T10:30:36;94330.88;;;19.25;54.58
12219;BME280;6172;42.646;23.344;2023-05-22T10:33:11;94336.28;;;19.19;58.09
12219;BME280;6172;42.646;23.344;2023-05-22T10:35:42;94340.88;;;18.93;62.95
12219;BME280;6172;42.646;23.344;2023-05-22T10:38:30;94367.47;;;18.06;100.00
12219;BME280;6172;42.646;23.344;2023-05-22T10:41:03;94366.63;;;17.07;100.00
12219;BME280;6172;42.646;23.344;2023-05-22T10:43:30;94357.88;;;17.18;100.00
12219;BME280;6172;42.646;23.344;2023-05-22T10:46:02;94357.50;;;16.92;100.00
12219;BME280;6172;42.646;23.344;2023-05-22T10:48:36;94359.03;;;16.75;100.00
12219;BME280;6172;42.646;23.344;2023-05-22T10:51:03;94354.38;;;17.17;100.00
12219;BME280;6172;42.646;23.344;2023-05-22T10:53:32;94346.41;;;17.19;100.00
12219;BME280;6172;42.646;23.344;2023-05-22T10:56:08;94345.97;;;17.54;100.00
12219;BME280;6172;42.646;23.344;2023-05-22T10:58:36;94346.16;;;17.83;100.00
12219;BME280;6172;42.646;23.344;2023-05-22T11:01:13;94335.09;;;18.06;100.00
12219;BME280;6172;42.646;23.344;2023-05-22T11:03:54;94333.94;;;18.22;100.00
12219;BME280;6172;42.646;23.344;2023-05-22T11:06:35;94330.13;;;18.43;100.00
12219;BME280;6172;42.646;23.344;2023-05-22T11:09:27;94332.91;;;18.57;100.00
12219;BME280;6172;42.646;23.344;2023-05-22T11:12:19;94319.50;;;19.23;100.00
12219;BME280;6172;42.646;23.344;2023-05-22T11:14:50;94320.84;;;19.13;100.00
12219;BME280;6172;42.646;23.344;2023-05-22T11:17:21;94321.06;;;18.95;100.00
12219;BME280;6172;42.646;23.344;2023-05-22T11:20:02;94327.22;;;18.75;100.00
12219;BME280;6172;42.646;23.344;2023-05-22T11:22:32;94325.28;;;18.52;100.00
12219;BME280;6172;42.646;23.344;2023-05-22T11:25:03;94337.97;;;18.59;100.00
12219;BME280;6172;42.646;23.344;2023-05-22T11:27:30;94357.69;;;18.19;100.00
12219;BME280;6172;42.646;23.344;2023-05-22T11:29:58;94362.69;;;17.83;91.85
12219;BME280;6172;42.646;23.344;2023-05-22T11:32:26;94355.63;;;17.07;92.56
12219;BME280;6172;42.646;23.344;2023-05-22T11:34:55;94382.72;;;16.37;84.81
12219;BME280;6172;42.646;23.344;2023-05-22T11:37:22;94377.94;;;16.01;98.90
12219;BME280;6172;42.646;23.344;2023-05-22T11:39:50;94385.69;;;15.76;100.00
12219;BME280;6172;42.646;23.344;2023-05-22T11:42:18;94395.47;;;15.16;100.00
12219;BME280;6172;42.646;23.344;2023-05-22T11:44:45;94396.78;;;15.02;100.00
12219;BME280;6172;42.646;23.344;2023-05-22T11:47:12;94399.84;;;15.04;100.00
12219;BME280;6172;42.646;23.344;2023-05-22T11:49:39;94400.66;;;15.14;100.00
12219;BME280;6172;42.646;23.344;2023-05-22T11:52:07;94391.13;;;15.27;100.00
12219;BME280;6172;42.646;23.344;2023-05-22T11:54:34;94386.38;;;15.28;100.00
12219;BME280;6172;42.646;23.344;2023-05-22T11:57:03;94398.47;;;15.39;100.00
12219;BME280;6172;42.646;23.344;2023-05-22T11:59:31;94393.16;;;15.45;100.00
12219;BME280;6172;42.646;23.344;2023-05-22T12:01:58;94388.56;;;15.33;100.00
12219;BME280;6172;42.646;23.344;2023-05-22T12:04:25;94386.97;;;15.23;100.00
12219;BME280;6172;42.646;23.344;2023-05-22T12:06:52;94385.41;;;15.13;100.00
12219;BME280;6172;42.646;23.344;2023-05-22T12:09:19;94401.69;;;15.07;100.00
12219;BME280;6172;42.646;23.344;2023-05-22T12:11:46;94397.81;;;14.95;100.00
12219;BME280;6172;42.646;23.344;2023-05-22T12:14:13;94399.41;;;14.84;100.00
12219;BME280;6172;42.646;23.344;2023-05-22T12:16:42;94392.34;;;14.74;100.00
12219;BME280;6172;42.646;23.344;2023-05-22T12:19:10;94386.16;;;14.82;100.00
12219;BME280;6172;42.646;23.344;2023-05-22T12:21:38;94384.84;;;14.96;100.00
12219;BME280;6172;42.646;23.344;2023-05-22T12:24:06;94381.44;;;15.14;100.00
12219;BME280;6172;42.646;23.344;2023-05-22T12:26:34;94377.25;;;15.31;100.00
12219;BME280;6172;42.646;23.344;2023-05-22T12:29:02;94371.97;;;15.45;100.00
12219;BME280;6172;42.646;23.344;2023-05-22T12:31:33;94370.16;;;15.51;100.00
12219;BME280;6172;42.646;23.344;2023-05-22T12:34:06;94365.53;;;15.79;100.00
12219;BME280;6172;42.646;23.344;2023-05-22T12:36:33;94358.41;;;15.90;100.00
12219;BME280;6172;42.646;23.344;2023-05-22T12:39:01;94355.22;;;16.10;100.00
12219;BME280;6172;42.646;23.344;2023-05-22T12:41:27;94353.53;;;16.21;100.00
12219;BME280;6172;42.646;23.344;2023-05-22T12:43:54;94347.13;;;16.33;100.00
12219;BME280;6172;42.646;23.344;2023-05-22T12:46:21;94353.25;;;16.46;100.00
12219;BME280;6172;42.646;23.344;2023-05-22T12:48:48;94351.09;;;16.68;100.00
12219;BME280;6172;42.646;23.344;2023-05-22T12:51:16;94348.94;;;16.63;100.00
12219;BME280;6172;42.646;23.344;2023-05-22T12:53:43;94344.38;;;16.69;100.00
12219;BME280;6172;42.646;23.344;2023-05-22T12:56:10;94344.34;;;16.87;100.00
12219;BME280;6172;42.646;23.344;2023-05-22T12:58:37;94345.88;;;16.88;97.75
12219;BME280;6172;42.646;23.344;2023-05-22T13:01:04;94345.84;;;17.06;97.46
12219;BME280;6172;42.646;23.344;2023-05-22T13:03:31;94352.41;;;17.09;98.23
12219;BME280;6172;42.646;23.344;2023-05-22T13:05:58;94348.66;;;16.70;94.84
12219;BME280;6172;42.646;23.344;2023-05-22T13:08:26;94344.06;;;16.58;100.00